Owatonna, MN

1:52 AM CST on January 29, 2015 (GMT -0600)
Owatonna WB0VAK | Change Station
CLOSE
Current Station
Personal Weather Station
Location: Owatonna, MN
Elevation: 1184 ft
Nearby Weather Stations
Active Advisory: Freezing Rain Advisory

Elev 1184 ft 44.04 °N, 93.31 °W | Updated 3 seconds ago

Overcast
Overcast
31.1 °F
Feels Like 20 °F
N
15.0
Wind Variable Wind from NNW
Gusts 21.0 mph

Today
High -- | Low -- °F
--% Chance of Precip.
Yesterday
High -- | Low -- °F
Precip. -- in
7:33 AM 5:18 PM
Waxing Gibbous, 72% visible
Pressure 29.88 in
Visibility 2.5 miles
Clouds Overcast 500 ft
Windchill 20 °F
Dew Point 31 °F
Humidity 100%
Rainfall 0.00 in
Snow Depth Not available.
UV 0 out of 12
Pollen .10 out of 12
Air Quality Not available.
Flu Activity Not available.
METAR KOWA 290735Z AUTO 33014G18KT 2 1/2SM BR OVC005 00/M01 A2988 RMK AO2

More Conditions Fewer Conditions

Pressure 29.88 in
Visibility 2.5 miles
Clouds Overcast 500 ft
Windchill 20 °F
Dew Point 31 °F
Humidity 100%
Rainfall 0.00 in
Snow Depth Not available.
UV 0 out of 12
Pollen .10 out of 12
Air Quality Not available.
Flu Activity Not available.
METAR KOWA 290735Z AUTO 33014G18KT 2 1/2SM BR OVC005 00/M01 A2988 RMK AO2

More Conditions Fewer Conditions

10-Day Weather Forecast

Almanac

Astronomy

Jan. 29, 2015 Rise Set
Actual Time
Civil Twilight
Nautical Twilight
Astronomical Twilight
Moon
Length of Visible Light
Length of Day
Tomorrow will be .
, % of the Moon is Illuminated

Today's Extremes

State Highs State Lows

Community

WunderPhotos

Upload Photos

1,791,387 photos uploaded!

WunderBlogs® & News

Nearby

Air Quality

  Air Quality AQ Index Pollutant
Not available.

Snow Depth

Station Depth Elevation

Earthquake Activity

City Distance Mag. Time & Date
Minimum magnitude displayed is 2.5.

Coastal Water Temperatures

Place Temperature

Nearby Weather Stations